AirNav  
 
 701 users online  

1OI9 Mc Colloch's Airport
Piqua, Ohio, USA

GOING TO PIQUA?


FAA INFORMATION EFFECTIVE 09 NOVEMBER 2017

Location

FAA Identifier: 1OI9
Lat/Long: 40-10-38.1790N / 084-17-39.8060W
40-10.636317N / 084-17.663433W
40.1772719 / -84.2943906
(estimated)
Elevation: 990 ft. / 302 m (estimated)
Variation: 04W (1985)
From city: 3 miles W of PIQUA, OH
Time zone: UTC -5 (UTC -4 during Daylight Saving Time)
Zip code: 45356

Airport Operations

Airport use: Private use, PERSONAL USE.
Activation date: 08/1980
Control tower: no
ARTCC: INDIANAPOLIS CENTER
FSS: DAYTON FLIGHT SERVICE STATION
Attendance: IREG
Wind indicator: yes
Segmented circle: no

Airport Communications

UNICOM: 122.725
WX AWOS-3 at SCA (8 nm NE): 120.425 (937-492-3683)
WX AWOS-3 at VES (11 nm W): 125.9 (937-526-3154)
WX ASOS at DAY (17 nm S): PHONE 937-415-6819
WX AWOS-3 at AXV (19 nm N): 128.325 (419-753-2821)

Nearby radio navigation aids

VOR radial/distance  VOR name  Freq  Var
DQNr027/10.7DAYTON VOR/DME114.5001W
RODr245/13.3ROSEWOOD VORTAC117.5005W
SGHr319/29.1SPRINGFIELD VOR/DME113.2004W
RIDr048/35.6RICHMOND VORTAC110.6003W

 
NDB name  Hdg/Dist  Freq  Var  ID
CLARK COUNTY312/29.934104WCCJ -.-. -.-. .---

Airport Services

Fuel available: 100

Runway Information

Runway 9/27

Dimensions: 2165 x 60 ft. / 660 x 18 m
Surface: turf
RUNWAY 9  RUNWAY 27
Traffic pattern: leftright
Displaced threshold: no600 ft.
Obstructions: none29 ft. plines, marked, 30 ft. from runway

Airport Ownership and Management from official FAA records

Ownership: Privately-owned
Owner: MARJORIE L MC COLLOCH
9515 N SPIKER ROAD
PIQUA, OH 45356
Phone 513-773-0663
Manager: JERRY L MC COLLOCH
9695 N SPIKER RD
PIQUA, OH 45356
Phone 513-773-1038

Airport Operational Statistics

Aircraft based on the field: 1
Single engine airplanes: 1
    

Instrument Procedures

There are no published instrument procedures at 1OI9.

Some nearby airports with instrument procedures:

I17 - Piqua Airport - Hartzell Field (1 nm SW)
KSCA - Sidney Municipal Airport (8 nm NE)
KVES - Darke County Airport (11 nm W)
3I7 - Phillipsburg Airport (17 nm S)
KDAY - James M Cox Dayton International Airport (17 nm S)
KAXV - Neil Armstrong Airport (19 nm N)
 
Loc | Ops | Rwys | IFR | FBO | Links
Com | Nav | Svcs | Stats | Notes


 
Area around 1OI9 (Mc Colloch's Airport)
 
Road maps at: MapQuest Bing Google
 
Aerial photo
No photo
 
Sectional chart

 
Airport distance calculator
Flying to Mc Colloch's Airport? Find the distance to fly.

From to 1OI9

Sunrise and sunset
Times for 20-Nov-2017
 Local
(UTC-5)
 Zulu
(UTC)
Morning civil twilight07:0012:00
Sunrise07:3012:30
Sunset17:1622:16
Evening civil twilight17:4622:46

Current date and time
Zulu (UTC)  21-Nov-2017 04:31:09
Local (UTC-5)  20-Nov-2017 23:31:09
 
METAR
KVES 
11nm W 
210415Z AUTO 20012G16KT 10SM CLR 03/M02 A2992 RMK AO2
KDAY 
17nm S 
210356Z 19013KT 10SM CLR 04/M03 A2996 RMK AO2 SLP153 T00391028
KAXV 
19nm N 
210413Z AUTO 18013G20KT 10SM CLR 03/M02 A2991 RMK AO2
TAF
KDAY 
17nm S 
201722Z 2018/2118 20012G20KT P6SM BKN250 FM202200 20012KT P6SM SCT250 FM210500 20012KT P6SM SCT250 WS020/22045KT FM211400 21014G24KT P6SM BKN250
NOTAMs
Click for the latest NOTAMs
NOTAMs are issued by the DoD/FAA and will open in a separate window not controlled by AirNav.

 

 
 

Would you like to see your business listed on this page?

 If your business provides an interesting product or service to pilots, flight crews, aircraft, or users of the Mc Colloch's Airport, you should consider listing it here.  To start the listing process, click on the button below
 
Add a business
 

Other Pages about Mc Colloch's Airport

Update a link
 
Copyright © AirNav, LLC. All rights reserved. Privacy Policy  Contact